KWYS/WYS METAR and TAF weather

Enter ICAO airport designator
Station Type Date Time Source
KWYS METAR 2019/02/16 03:55 UTC NOAA

KWYS 160355Z AUTO 22015G22KT 5SM -SN SCT017 BKN024 OVC031 M06/M08 A2959 RMK AO2


Station Type Date Time Source
KWYS Decoded METAR 2019/02/16 03:55 UTC NOAA

West Yellowstone, MT, United States (KWYS) 44-41N 111-07W
Feb 15, 2019 - 10:55 PM EST / 2019.02.16 0355 UTC
Wind: from the SW (220 degrees) at 17 MPH (15 KT) gusting to 25 MPH (22 KT):0
Visibility: 5 mile(s):0
Sky conditions: overcast
Weather: light snow
Temperature: 21 F (-6 C)
Windchill: 6 F (-14 C):1
Dew Point: 17 F (-8 C)
Relative Humidity: 85%
Pressure (altimeter): 29.59 in. Hg (1002 hPa)
ob: KWYS 160355Z AUTO 22015G22KT 5SM -SN SCT017 BKN024 OVC031 M06/M08 A2959 RMK AO2
cycle: 4

Station Type Date Time Source
KWYS TAF UTC NOAA

Error!


Example: see airport list